KEKS

Ennis - Big Sky Airport

Ennis, Montana, USA
METAR KEKS 230035Z AUTO 04004KT 10SM CLR 08/01 A3016 RMK AO2
Observed Flight Rules
Oct-23 @ 00:35 UTC (28 minutes ago) Visual Flight Rules
Wind Visibility Clouds
40° at 4 knots 10 miles
  • Clear skies
Temperatures Readings
Current 8°C / 46°F
Dewpoint 1°C / 34°F
Humidity 62%
Altimeter 30.16" Hg
Pressure 1021 hPa
Elevation 1641
METAR KEKS 230035Z AUTO 04004KT 10SM CLR 08/01 A3016 RMK AO2
Observed Flight Rules
Oct-23 @ 00:35 UTC
(28 minutes ago)
VFR
Wind Visibility
40° at 4 knots 10 miles
Clouds
  • Clear skies
Temperature Dewpoint
8°C / 46°F 1°C / 34°F
Humidity Altimeter Pressure
62% 30.16" Hg 1021 hPa